createdAt,value
2018-04-11T00:00:03.769Z,28.40
2018-04-11T00:02:31.433Z,32.40
2018-04-11T00:04:59.136Z,30.03
2018-04-11T00:07:27.269Z,30.10
2018-04-11T00:09:55.288Z,33.30
2018-04-11T00:12:23.704Z,27.77
2018-04-11T00:14:51.311Z,29.70
2018-04-11T00:17:19.019Z,25.40
2018-04-11T00:19:47.098Z,29.97
2018-04-11T00:22:16.284Z,29.07
2018-04-11T00:24:43.981Z,35.00
2018-04-11T00:27:13.113Z,29.90
2018-04-11T00:29:40.768Z,29.23
2018-04-11T00:32:09.229Z,30.50
2018-04-11T00:34:37.262Z,24.53
2018-04-11T00:37:05.277Z,28.80
2018-04-11T00:39:33.694Z,29.97
2018-04-11T00:42:01.311Z,30.50
2018-04-11T00:44:29.025Z,29.17
2018-04-11T00:46:57.799Z,29.03
2018-04-11T00:49:26.315Z,28.93
2018-04-11T00:51:54.024Z,32.30
2018-04-11T00:54:22.034Z,36.80
2018-04-11T00:56:50.084Z,34.07
2018-04-11T00:59:17.734Z,29.40
2018-04-11T01:01:46.181Z,31.27
2018-04-11T01:04:14.558Z,32.33
2018-04-11T01:06:43.336Z,30.30
2018-04-11T01:09:11.752Z,30.23
2018-04-11T01:11:40.723Z,31.80
2018-04-11T01:14:09.162Z,33.40
2018-04-11T01:16:37.635Z,31.23
2018-04-11T01:19:05.284Z,34.50
2018-04-11T01:21:33.708Z,29.83
2018-04-11T01:24:02.684Z,31.70
2018-04-11T01:26:31.109Z,30.37
2018-04-11T01:28:59.537Z,30.33
2018-04-11T01:31:29.179Z,29.07
2018-04-11T01:33:58.336Z,28.87
2018-04-11T01:36:26.347Z,30.67
2018-04-11T01:38:54.816Z,35.77
2018-04-11T01:41:23.982Z,32.47
2018-04-11T01:43:52.075Z,32.10
2018-04-11T01:46:20.164Z,29.60
2018-04-11T01:48:48.933Z,29.53
2018-04-11T01:51:17.766Z,30.53
2018-04-11T01:53:45.391Z,29.87
2018-04-11T01:56:14.577Z,35.93
2018-04-11T01:58:43.633Z,31.23
2018-04-11T02:01:11.647Z,33.93
2018-04-11T02:03:40.417Z,31.07
2018-04-11T02:06:08.456Z,34.47
2018-04-11T02:08:36.559Z,37.00
2018-04-11T02:11:04.648Z,33.17
2018-04-11T02:13:32.731Z,35.50
2018-04-11T02:16:01.186Z,32.17
2018-04-11T02:18:28.837Z,29.97
2018-04-11T02:20:58.009Z,33.07
2018-04-11T02:23:26.433Z,33.47
2018-04-11T02:25:55.500Z,29.80
2018-04-11T02:28:23.568Z,32.53
2018-04-11T02:30:51.214Z,28.83
2018-04-11T02:33:19.676Z,35.70
2018-04-11T02:35:47.295Z,35.47
2018-04-11T02:38:15.730Z,32.83
2018-04-11T02:40:44.156Z,35.47
2018-04-11T02:43:11.809Z,37.80
2018-04-11T02:45:39.523Z,32.90
2018-04-11T02:48:07.171Z,36.70
2018-04-11T02:50:34.816Z,28.03
2018-04-11T02:53:03.316Z,33.47
2018-04-11T02:55:32.104Z,31.30
2018-04-11T02:57:59.747Z,31.97
2018-04-11T03:00:28.875Z,28.27
2018-04-11T03:02:58.111Z,32.23
2018-04-11T03:05:25.796Z,32.67
2018-04-11T03:07:54.988Z,34.67
2018-04-11T03:10:22.707Z,35.30
2018-04-11T03:12:50.359Z,35.20
2018-04-11T03:15:18.054Z,33.97
2018-04-11T03:17:46.066Z,32.10
2018-04-11T03:20:14.130Z,31.83
2018-04-11T03:22:42.151Z,29.00
2018-04-11T03:25:09.822Z,29.87
2018-04-11T03:27:39.036Z,32.50
2018-04-11T03:30:06.711Z,32.93
2018-04-11T03:32:35.102Z,31.27
2018-04-11T03:35:03.591Z,30.47
2018-04-11T03:37:31.623Z,28.13
2018-04-11T03:40:00.063Z,35.37
2018-04-11T03:42:27.717Z,34.93
2018-04-11T03:44:56.184Z,27.73
2018-04-11T03:47:25.331Z,27.07
2018-04-11T03:49:53.020Z,31.47
2018-04-11T03:52:20.643Z,28.87
2018-04-11T03:54:48.694Z,26.53
2018-04-11T03:57:16.733Z,31.87
2018-04-11T03:59:44.782Z,29.53
2018-04-11T04:02:12.850Z,27.87
2018-04-11T04:04:40.881Z,32.53
2018-04-11T04:07:09.307Z,33.33
2018-04-11T04:09:37.736Z,33.47
2018-04-11T04:12:06.607Z,32.37
2018-04-11T04:14:46.920Z,37.07
2018-04-11T04:17:28.338Z,29.77
2018-04-11T04:20:07.837Z,27.73
2018-04-11T04:22:35.498Z,28.03
2018-04-11T04:25:03.588Z,30.53
2018-04-11T04:27:32.032Z,27.73
2018-04-11T04:29:59.712Z,31.83
2018-04-11T04:32:28.938Z,30.17
2018-04-11T04:34:57.122Z,27.87
2018-04-11T04:37:25.153Z,28.60
2018-04-11T04:39:53.577Z,27.17
2018-04-11T04:42:21.283Z,27.07
2018-04-11T04:44:48.894Z,30.30
2018-04-11T04:47:17.352Z,28.70
2018-04-11T04:49:45.046Z,26.20
2018-04-11T04:52:13.139Z,27.87
2018-04-11T04:54:41.554Z,29.97
2018-04-11T04:57:09.631Z,25.63
2018-04-11T04:59:37.250Z,28.73
2018-04-11T05:02:05.692Z,26.63
2018-04-11T05:04:33.799Z,25.17
2018-04-11T05:07:02.610Z,31.60
2018-04-11T05:09:30.295Z,28.47
2018-04-11T05:11:57.952Z,23.17
2018-04-11T05:14:25.574Z,26.47
2018-04-11T05:16:55.019Z,29.87
2018-04-11T05:19:22.701Z,25.87
2018-04-11T05:21:51.143Z,25.83
2018-04-11T05:24:19.578Z,27.00
2018-04-11T05:26:48.711Z,24.23
2018-04-11T05:29:17.178Z,24.03
2018-04-11T05:31:45.629Z,25.23
2018-04-11T05:34:14.084Z,26.00
2018-04-11T05:36:42.568Z,29.33
2018-04-11T05:39:11.765Z,22.13
2018-04-11T05:41:39.375Z,26.43
2018-04-11T05:44:07.782Z,25.10
2018-04-11T05:46:36.225Z,23.07
2018-04-11T05:49:03.893Z,23.70
2018-04-11T05:51:32.009Z,31.07
2018-04-11T05:54:00.840Z,21.80
2018-04-11T05:56:29.689Z,26.83
2018-04-11T05:58:57.411Z,26.03
2018-04-11T06:01:25.495Z,26.43
2018-04-11T06:03:53.984Z,26.33
2018-04-11T06:06:22.785Z,20.67
2018-04-11T06:08:50.463Z,35.27
2018-04-11T06:11:18.520Z,26.60
2018-04-11T06:13:46.575Z,25.27
2018-04-11T06:16:15.068Z,24.37
2018-04-11T06:18:42.706Z,32.83
2018-04-11T06:21:10.774Z,26.80
2018-04-11T06:23:39.597Z,25.87
2018-04-11T06:26:07.638Z,29.03
2018-04-11T06:28:36.075Z,29.40
2018-04-11T06:31:04.165Z,29.20
2018-04-11T06:33:32.572Z,32.07
2018-04-11T06:36:00.671Z,30.47
2018-04-11T06:38:28.305Z,30.13
2018-04-11T06:40:56.780Z,31.30
2018-04-11T06:43:24.544Z,35.20
2018-04-11T06:45:52.968Z,28.83
2018-04-11T06:48:20.619Z,29.83
2018-04-11T06:50:48.663Z,29.40
2018-04-11T06:53:17.135Z,36.03
2018-04-11T06:55:46.082Z,27.13
2018-04-11T06:58:14.625Z,31.20
2018-04-11T07:00:42.665Z,29.07
2018-04-11T07:03:10.334Z,31.03
2018-04-11T07:05:38.563Z,33.23
2018-04-11T07:08:06.627Z,28.10
2018-04-11T07:10:34.680Z,29.90
2018-04-11T07:13:03.131Z,30.70
2018-04-11T07:15:31.565Z,36.73
2018-04-11T07:18:00.340Z,37.00
2018-04-11T07:20:28.804Z,37.50
2018-04-11T07:22:57.214Z,33.20
2018-04-11T07:25:24.931Z,35.07
2018-04-11T07:27:53.333Z,31.20
2018-04-11T07:30:21.370Z,33.87
2018-04-11T07:32:50.189Z,26.90
2018-04-11T07:35:18.273Z,38.43
2018-04-11T07:37:47.146Z,30.43
2018-04-11T07:40:15.233Z,33.23
2018-04-11T07:42:43.279Z,32.97
2018-04-11T07:45:11.345Z,36.07
2018-04-11T07:47:39.003Z,40.17
2018-04-11T07:50:07.105Z,32.27
2018-04-11T07:52:35.197Z,34.40
2018-04-11T07:55:03.722Z,35.67
2018-04-11T07:57:31.345Z,41.27
2018-04-11T07:59:59.822Z,34.33
2018-04-11T08:02:27.498Z,34.53
2018-04-11T08:04:55.584Z,35.60
2018-04-11T08:07:23.635Z,34.17
2018-04-11T08:09:52.024Z,34.93
2018-04-11T08:12:20.106Z,32.43
2018-04-11T08:14:47.855Z,34.50
2018-04-11T08:17:16.327Z,32.60
2018-04-11T08:19:44.113Z,32.33
2018-04-11T08:22:12.578Z,32.70
2018-04-11T08:24:40.199Z,30.77
2018-04-11T08:27:08.681Z,26.63
2018-04-11T08:29:37.722Z,32.27
2018-04-11T08:32:05.382Z,34.93
2018-04-11T08:34:33.123Z,30.73
2018-04-11T08:37:01.160Z,27.80
2018-04-11T08:39:30.368Z,31.93
2018-04-11T08:41:58.802Z,32.67
2018-04-11T08:44:26.484Z,32.20
2018-04-11T08:46:55.664Z,34.20
2018-04-11T08:49:23.282Z,32.10
2018-04-11T08:51:50.979Z,28.07
2018-04-11T08:54:18.673Z,32.00
2018-04-11T08:56:46.695Z,33.10
2018-04-11T08:59:14.791Z,34.00
2018-04-11T09:01:42.464Z,30.97
2018-04-11T09:04:10.149Z,31.90
2018-04-11T09:06:39.013Z,33.67
2018-04-11T09:09:08.151Z,33.53
2018-04-11T09:11:36.591Z,37.00
2018-04-11T09:14:04.286Z,34.93
2018-04-11T09:16:32.762Z,34.60
2018-04-11T09:19:01.182Z,33.03
2018-04-11T09:21:28.867Z,36.53
2018-04-11T09:23:57.301Z,35.50
2018-04-11T09:26:25.308Z,43.30
2018-04-11T09:28:52.926Z,36.77
2018-04-11T09:31:21.376Z,34.83
2018-04-11T09:33:49.379Z,35.90
2018-04-11T09:36:17.801Z,33.67
2018-04-11T09:38:45.499Z,33.70
2018-04-11T09:41:13.616Z,33.97
2018-04-11T09:43:41.320Z,39.93
2018-04-11T09:46:09.010Z,36.37
2018-04-11T09:48:37.421Z,32.73
2018-04-11T09:51:05.101Z,42.07
2018-04-11T09:53:32.743Z,34.13
2018-04-11T09:56:01.230Z,32.63
2018-04-11T09:58:28.913Z,34.93
2018-04-11T10:00:56.634Z,39.60
2018-04-11T10:03:25.115Z,36.63
2018-04-11T10:05:53.354Z,37.40
2018-04-11T10:08:21.015Z,37.33
2018-04-11T10:10:49.079Z,38.83
2018-04-11T10:13:16.816Z,38.20
2018-04-11T10:15:44.491Z,32.57
2018-04-11T10:18:12.878Z,30.33
2018-04-11T10:20:40.997Z,32.73
2018-04-11T10:23:09.074Z,38.23
2018-04-11T10:25:36.699Z,33.60
2018-04-11T10:28:04.355Z,33.00
2018-04-11T10:30:32.090Z,33.53
2018-04-11T10:32:59.761Z,34.50
2018-04-11T10:35:27.390Z,33.70
2018-04-11T10:37:55.072Z,33.73
2018-04-11T10:40:22.750Z,36.43
2018-04-11T10:42:50.426Z,32.40
2018-04-11T10:45:18.084Z,34.53
2018-04-11T10:47:45.772Z,32.33
2018-04-11T10:50:13.431Z,29.03
2018-04-11T10:52:41.111Z,29.07
2018-04-11T10:55:09.490Z,30.77
2018-04-11T10:57:37.956Z,29.47
2018-04-11T11:00:06.451Z,25.70
2018-04-11T11:02:34.912Z,27.47
2018-04-11T11:05:02.543Z,26.03
2018-04-11T11:07:30.778Z,29.70
2018-04-11T11:09:58.490Z,27.23
2018-04-11T11:12:26.942Z,29.53
2018-04-11T11:14:55.358Z,32.13
2018-04-11T11:17:23.375Z,27.80
2018-04-11T11:20:02.023Z,31.10
2018-04-11T11:22:29.723Z,29.27
2018-04-11T11:24:57.806Z,31.23
2018-04-11T11:27:26.218Z,29.20
2018-04-11T11:29:53.871Z,37.43
2018-04-11T11:32:22.456Z,28.17
2018-04-11T11:34:50.133Z,31.50
2018-04-11T11:37:17.798Z,29.30
2018-04-11T11:39:45.939Z,31.83
2018-04-11T11:42:14.406Z,28.40
2018-04-11T11:44:42.790Z,28.47
2018-04-11T11:47:21.749Z,33.30
2018-04-11T11:49:49.456Z,29.50
2018-04-11T11:52:17.247Z,30.07
2018-04-11T11:54:45.664Z,29.23
2018-04-11T11:57:13.324Z,29.50
2018-04-11T11:59:41.059Z,35.47
2018-04-11T12:02:10.138Z,30.63
2018-04-11T12:04:38.613Z,34.63
2018-04-11T12:07:06.700Z,31.60
2018-04-11T12:09:35.113Z,35.10
2018-04-11T12:12:02.746Z,29.50
2018-04-11T12:14:31.967Z,32.47
2018-04-11T12:16:59.692Z,31.37
2018-04-11T12:19:27.375Z,33.03
2018-04-11T12:21:55.025Z,31.50
2018-04-11T12:24:23.466Z,30.90
2018-04-11T12:26:51.100Z,31.40
2018-04-11T12:29:18.824Z,31.33
2018-04-11T12:31:46.442Z,38.30
2018-04-11T12:34:14.499Z,34.10
2018-04-11T12:36:42.159Z,35.83
2018-04-11T12:39:10.620Z,35.50
2018-04-11T12:41:39.044Z,32.67
2018-04-11T12:44:06.706Z,34.37
2018-04-11T12:46:34.369Z,32.17
2018-04-11T12:49:02.059Z,32.90
2018-04-11T12:51:29.802Z,33.13
2018-04-11T12:53:57.483Z,33.60
2018-04-11T12:56:25.133Z,32.47
2018-04-11T12:58:54.059Z,32.27
2018-04-11T13:01:22.855Z,31.43
2018-04-11T13:03:50.489Z,32.10
2018-04-11T13:06:18.147Z,30.47
2018-04-11T13:08:45.786Z,26.73
2018-04-11T13:11:13.820Z,28.90
2018-04-11T13:13:41.519Z,31.23
2018-04-11T13:16:09.179Z,31.50
2018-04-11T13:18:36.898Z,32.33
2018-04-11T13:21:04.975Z,27.63
2018-04-11T13:23:32.601Z,35.40
2018-04-11T13:26:00.292Z,30.93
2018-04-11T13:28:29.435Z,34.50
2018-04-11T13:30:57.193Z,32.70
2018-04-11T13:33:25.271Z,30.67
2018-04-11T13:35:53.355Z,36.67
2018-04-11T13:38:21.004Z,40.53
2018-04-11T13:40:49.079Z,35.13
2018-04-11T13:43:16.827Z,38.17
2018-04-11T13:45:44.569Z,40.17
2018-04-11T13:48:12.192Z,38.17
2018-04-11T13:50:39.895Z,37.70
2018-04-11T13:53:08.329Z,37.60
2018-04-11T13:55:35.982Z,37.33
2018-04-11T13:58:03.683Z,36.50
2018-04-11T14:00:33.234Z,41.60
2018-04-11T14:03:01.647Z,37.97
2018-04-11T14:05:29.334Z,43.17
2018-04-11T14:07:57.729Z,36.27
2018-04-11T14:10:25.850Z,39.77
2018-04-11T14:12:53.540Z,41.07
2018-04-11T14:15:21.655Z,44.00
2018-04-11T14:17:50.076Z,47.37
2018-04-11T14:20:17.782Z,43.03
2018-04-11T14:22:45.405Z,41.77
2018-04-11T14:25:13.049Z,45.27
2018-04-11T14:27:40.753Z,41.37
2018-04-11T14:30:08.400Z,37.90
2018-04-11T14:32:36.819Z,40.30
2018-04-11T14:35:04.904Z,40.90
2018-04-11T14:37:32.564Z,36.33
2018-04-11T14:40:00.242Z,38.77
2018-04-11T14:42:27.960Z,39.27
2018-04-11T14:44:55.660Z,39.70
2018-04-11T14:47:24.124Z,35.57
2018-04-11T14:49:51.773Z,41.30
2018-04-11T14:52:19.438Z,38.87
2018-04-11T14:54:47.094Z,38.87
2018-04-11T14:57:14.746Z,35.27
2018-04-11T14:59:43.178Z,36.80
2018-04-11T15:02:12.252Z,39.83
2018-04-11T15:04:39.875Z,43.37
2018-04-11T15:07:08.333Z,40.57
2018-04-11T15:09:36.417Z,39.47
2018-04-11T15:12:04.536Z,41.30
2018-04-11T15:14:32.223Z,43.93
2018-04-11T15:16:59.847Z,46.40
2018-04-11T15:19:27.938Z,47.93
2018-04-11T15:21:55.991Z,45.80
2018-04-11T15:24:23.753Z,43.97
2018-04-11T15:26:51.386Z,44.23
2018-04-11T15:29:19.811Z,45.27
2018-04-11T15:31:47.469Z,45.70
2018-04-11T15:34:15.141Z,46.87
2018-04-11T15:36:42.814Z,46.67
2018-04-11T15:39:11.232Z,43.77
2018-04-11T15:41:40.435Z,42.57
2018-04-11T15:44:08.858Z,45.03
2018-04-11T15:46:38.677Z,46.83
2018-04-11T15:49:06.317Z,43.23
2018-04-11T15:51:34.738Z,42.90
2018-04-11T15:54:02.458Z,40.10
2018-04-11T15:56:30.913Z,45.90
2018-04-11T15:58:59.379Z,41.40
2018-04-11T16:01:27.855Z,40.97
2018-04-11T16:03:55.573Z,43.70
2018-04-11T16:06:23.222Z,41.50
2018-04-11T16:08:51.323Z,40.27
2018-04-11T16:11:19.007Z,35.57
2018-04-11T16:13:48.078Z,35.77
2018-04-11T16:16:17.024Z,35.87
2018-04-11T16:18:44.667Z,34.60
2018-04-11T16:21:13.115Z,33.50
2018-04-11T16:23:40.800Z,32.40
2018-04-11T16:26:08.863Z,32.87
2018-04-11T16:28:37.367Z,36.40
2018-04-11T16:31:05.426Z,41.27
2018-04-11T16:33:33.463Z,40.30
2018-04-11T16:36:01.142Z,33.27
2018-04-11T16:38:28.766Z,36.60
2018-04-11T16:40:56.449Z,32.50
2018-04-11T16:43:24.502Z,35.17
2018-04-11T16:45:52.169Z,40.67
2018-04-11T16:48:19.902Z,32.03
2018-04-11T16:50:47.588Z,33.87
2018-04-11T16:53:15.368Z,33.13
2018-04-11T16:55:43.019Z,37.17
2018-04-11T16:58:11.513Z,32.53
2018-04-11T17:00:39.195Z,39.83
2018-04-11T17:03:06.867Z,35.70
2018-04-11T17:05:34.600Z,36.67
2018-04-11T17:08:02.222Z,38.47
2018-04-11T17:10:30.684Z,34.30
2018-04-11T17:12:58.353Z,30.53
2018-04-11T17:15:26.782Z,29.87
2018-04-11T17:17:54.464Z,29.07
2018-04-11T17:20:35.225Z,27.60
2018-04-11T17:23:14.808Z,27.77
2018-04-11T17:25:55.098Z,24.33
2018-04-11T17:28:35.381Z,21.93
2018-04-11T17:31:15.517Z,21.87
2018-04-11T17:33:43.269Z,27.90
2018-04-11T17:36:11.024Z,30.67
2018-04-11T17:38:38.696Z,26.43
2018-04-11T17:41:06.425Z,23.77
2018-04-11T17:43:34.472Z,26.33
2018-04-11T17:46:02.191Z,23.73
2018-04-11T17:48:29.888Z,28.37
2018-04-11T17:50:59.542Z,25.23
2018-04-11T17:53:27.682Z,28.97
2018-04-11T17:55:57.182Z,31.03
2018-04-11T17:58:26.058Z,30.33
2018-04-11T18:00:54.250Z,29.80
2018-04-11T18:03:22.975Z,30.03
2018-04-11T18:05:51.425Z,33.23
2018-04-11T18:08:19.239Z,31.33
2018-04-11T18:10:46.907Z,34.33
2018-04-11T18:13:14.618Z,34.10
2018-04-11T18:15:42.307Z,36.67
2018-04-11T18:18:11.117Z,33.23
2018-04-11T18:20:39.348Z,35.93
2018-04-11T18:23:07.122Z,33.30
2018-04-11T18:25:34.783Z,35.50
2018-04-11T18:28:03.554Z,36.27
2018-04-11T18:30:32.045Z,37.90
2018-04-11T18:32:59.786Z,39.17
2018-04-11T18:35:27.460Z,34.13
2018-04-11T18:37:55.191Z,38.07
2018-04-11T18:40:23.236Z,39.70
2018-04-11T18:42:50.894Z,38.87
2018-04-11T18:45:19.411Z,39.17
2018-04-11T18:47:47.064Z,39.37
2018-04-11T18:50:15.095Z,39.50
2018-04-11T18:52:43.182Z,36.47
2018-04-11T18:55:10.888Z,37.27
2018-04-11T18:57:39.001Z,36.50
2018-04-11T19:00:07.463Z,40.23
2018-04-11T19:02:35.572Z,36.17
2018-04-11T19:05:03.276Z,35.63
2018-04-11T19:07:30.981Z,35.07
2018-04-11T19:09:59.017Z,34.30
2018-04-11T19:12:26.647Z,37.83
2018-04-11T19:14:54.748Z,33.83
2018-04-11T19:17:22.383Z,39.70
2018-04-11T19:19:50.033Z,35.30
2018-04-11T19:22:17.717Z,36.77
2018-04-11T19:24:45.413Z,37.00
2018-04-11T19:27:13.094Z,40.40
2018-04-11T19:29:40.715Z,37.77
2018-04-11T19:32:08.830Z,31.67
2018-04-11T19:34:37.000Z,36.53
2018-04-11T19:37:05.878Z,29.50
2018-04-11T19:39:34.271Z,33.23
2018-04-11T19:42:02.695Z,31.90
2018-04-11T19:44:31.597Z,35.60
2018-04-11T19:46:59.284Z,33.80
2018-04-11T19:49:27.351Z,33.90
2018-04-11T19:51:55.057Z,34.73
2018-04-11T19:54:22.691Z,36.23
2018-04-11T19:56:51.192Z,33.17
2018-04-11T19:59:20.336Z,30.73
2018-04-11T20:01:48.733Z,35.17
2018-04-11T20:04:16.423Z,32.17
2018-04-11T20:06:44.908Z,32.13
2018-04-11T20:09:13.356Z,30.97
2018-04-11T20:11:41.088Z,32.60
2018-04-11T20:14:09.309Z,29.43
2018-04-11T20:16:38.337Z,31.47
2018-04-11T20:19:06.420Z,28.57
2018-04-11T20:21:34.122Z,29.80
2018-04-11T20:24:01.822Z,29.50
2018-04-11T20:26:49.400Z,35.23
2018-04-11T20:29:17.514Z,32.53
2018-04-11T20:31:45.544Z,30.90
2018-04-11T20:34:13.651Z,35.13
2018-04-11T20:36:43.195Z,36.80
2018-04-11T20:39:11.238Z,36.53
2018-04-11T20:41:39.755Z,39.17
2018-04-11T20:44:07.883Z,40.07
2018-04-11T20:46:35.620Z,36.07
2018-04-11T20:49:03.299Z,35.10
2018-04-11T20:51:32.442Z,35.60
2018-04-11T20:54:00.533Z,36.27
2018-04-11T20:56:28.623Z,37.67
2018-04-11T20:58:56.687Z,41.10
2018-04-11T21:01:24.847Z,36.40
2018-04-11T21:03:52.912Z,37.43
2018-04-11T21:06:29.149Z,43.60
2018-04-11T21:08:57.228Z,37.63
2018-04-11T21:11:25.070Z,39.57
2018-04-11T21:13:53.517Z,41.57
2018-04-11T21:16:21.875Z,35.27
2018-04-11T21:18:49.546Z,32.77
2018-04-11T21:21:17.566Z,35.77
2018-04-11T21:23:46.003Z,37.90
2018-04-11T21:26:13.626Z,37.10
2018-04-11T21:28:41.277Z,46.47
2018-04-11T21:31:09.304Z,42.10
2018-04-11T21:33:37.050Z,36.47
2018-04-11T21:36:04.732Z,35.47
2018-04-11T21:38:32.791Z,35.70
2018-04-11T21:41:00.529Z,38.80
2018-04-11T21:43:28.161Z,41.70
2018-04-11T21:45:56.926Z,37.23
2018-04-11T21:48:24.956Z,40.87
2018-04-11T21:50:53.357Z,40.50
2018-04-11T21:53:22.098Z,38.33
2018-04-11T21:55:50.179Z,42.53
2018-04-11T21:58:17.824Z,37.03
2018-04-11T22:00:45.890Z,42.83
2018-04-11T22:03:14.313Z,43.73
2018-04-11T22:05:42.789Z,42.87
2018-04-11T22:08:11.635Z,45.97
2018-04-11T22:10:39.676Z,46.63
2018-04-11T22:13:07.689Z,47.20
2018-04-11T22:15:36.102Z,51.97
2018-04-11T22:18:03.779Z,46.77
2018-04-11T22:20:31.451Z,46.23
2018-04-11T22:22:59.114Z,47.97
2018-04-11T22:25:26.819Z,50.40
2018-04-11T22:27:55.584Z,42.27
2018-04-11T22:30:23.726Z,49.87
2018-04-11T22:32:51.374Z,52.60
2018-04-11T22:35:20.570Z,54.50
2018-04-11T22:37:48.267Z,52.90
2018-04-11T22:40:15.951Z,54.40
2018-04-11T22:42:44.394Z,52.23
2018-04-11T22:45:12.439Z,61.10
2018-04-11T22:47:40.488Z,58.60
2018-04-11T22:50:08.181Z,63.23
2018-04-11T22:52:35.885Z,68.43
2018-04-11T22:55:03.599Z,65.03
2018-04-11T22:57:31.655Z,63.03
2018-04-11T22:59:59.788Z,61.03
2018-04-11T23:02:27.474Z,63.17
2018-04-11T23:04:55.935Z,65.77
2018-04-11T23:07:23.673Z,69.30
2018-04-11T23:09:51.360Z,64.10
2018-04-11T23:12:20.456Z,65.30
2018-04-11T23:14:48.528Z,64.03
2018-04-11T23:17:16.558Z,59.80
2018-04-11T23:19:44.260Z,65.57
2018-04-11T23:22:11.952Z,79.17
2018-04-11T23:24:40.008Z,63.17
2018-04-11T23:27:08.409Z,68.47
2018-04-11T23:29:36.464Z,70.33
2018-04-11T23:32:05.483Z,68.27
2018-04-11T23:34:34.327Z,67.07
2018-04-11T23:37:01.990Z,70.23
2018-04-11T23:39:30.402Z,72.20
2018-04-11T23:41:58.475Z,67.17
2018-04-11T23:44:26.572Z,67.67
2018-04-11T23:46:54.299Z,64.63
2018-04-11T23:49:22.770Z,69.83
2018-04-11T23:51:50.443Z,72.10
2018-04-11T23:54:18.524Z,75.27
2018-04-11T23:56:46.564Z,67.50
2018-04-11T23:59:15.012Z,74.27
